sensor_id;sensor_type;location;lat;lon;timestamp;temperature;humidity
68354;DHT22;55274;43.060;25.618;2023-12-22T00:01:30;-1.20;99.90
68354;DHT22;55274;43.060;25.618;2023-12-22T00:03:56;-1.20;99.90
68354;DHT22;55274;43.060;25.618;2023-12-22T00:06:22;-1.20;99.90
68354;DHT22;55274;43.060;25.618;2023-12-22T00:08:48;-1.30;99.90
68354;DHT22;55274;43.060;25.618;2023-12-22T00:11:14;-1.30;99.90
68354;DHT22;55274;43.060;25.618;2023-12-22T00:13:39;-1.20;99.90
68354;DHT22;55274;43.060;25.618;2023-12-22T00:16:05;-1.20;99.90
68354;DHT22;55274;43.060;25.618;2023-12-22T00:18:31;-1.10;99.90
68354;DHT22;55274;43.060;25.618;2023-12-22T00:20:57;-1.10;99.90
68354;DHT22;55274;43.060;25.618;2023-12-22T00:23:23;-1.10;99.90
68354;DHT22;55274;43.060;25.618;2023-12-22T00:25:48;-1.10;99.90
68354;DHT22;55274;43.060;25.618;2023-12-22T00:28:14;-1.10;99.90
68354;DHT22;55274;43.060;25.618;2023-12-22T00:30:40;-1.10;99.90
68354;DHT22;55274;43.060;25.618;2023-12-22T00:33:06;-1.20;99.90
68354;DHT22;55274;43.060;25.618;2023-12-22T00:35:32;-1.20;99.90
68354;DHT22;55274;43.060;25.618;2023-12-22T00:37:58;-1.20;99.90
68354;DHT22;55274;43.060;25.618;2023-12-22T00:40:24;-1.10;99.90
68354;DHT22;55274;43.060;25.618;2023-12-22T00:42:50;-1.10;99.90
68354;DHT22;55274;43.060;25.618;2023-12-22T00:45:15;-1.10;99.90
68354;DHT22;55274;43.060;25.618;2023-12-22T00:47:41;-1.10;99.90
68354;DHT22;55274;43.060;25.618;2023-12-22T00:50:07;-1.10;99.90
68354;DHT22;55274;43.060;25.618;2023-12-22T00:52:33;-1.20;99.90
68354;DHT22;55274;43.060;25.618;2023-12-22T00:54:59;-1.20;99.90
68354;DHT22;55274;43.060;25.618;2023-12-22T00:57:25;-1.30;99.90
68354;DHT22;55274;43.060;25.618;2023-12-22T00:59:51;-1.30;99.90
68354;DHT22;55274;43.060;25.618;2023-12-22T01:02:17;-1.20;99.90
68354;DHT22;55274;43.060;25.618;2023-12-22T01:04:43;-1.30;99.90
68354;DHT22;55274;43.060;25.618;2023-12-22T01:07:10;-1.30;99.90
68354;DHT22;55274;43.060;25.618;2023-12-22T01:09:36;-1.30;99.90
68354;DHT22;55274;43.060;25.618;2023-12-22T01:12:04;-1.30;99.90
68354;DHT22;55274;43.060;25.618;2023-12-22T01:14:30;-1.30;99.90
68354;DHT22;55274;43.060;25.618;2023-12-22T01:16:56;-1.30;99.90
68354;DHT22;55274;43.060;25.618;2023-12-22T01:19:22;-1.40;99.90
68354;DHT22;55274;43.060;25.618;2023-12-22T01:21:48;-1.40;99.90
68354;DHT22;55274;43.060;25.618;2023-12-22T01:24:15;-1.40;99.90
68354;DHT22;55274;43.060;25.618;2023-12-22T01:26:40;-1.40;99.90
68354;DHT22;55274;43.060;25.618;2023-12-22T01:29:06;-1.30;99.90
68354;DHT22;55274;43.060;25.618;2023-12-22T01:31:32;-1.30;99.90
68354;DHT22;55274;43.060;25.618;2023-12-22T01:33:58;-1.30;99.90
68354;DHT22;55274;43.060;25.618;2023-12-22T01:36:23;-1.30;99.90
68354;DHT22;55274;43.060;25.618;2023-12-22T01:38:49;-1.30;99.90
68354;DHT22;55274;43.060;25.618;2023-12-22T01:41:15;-1.30;99.90
68354;DHT22;55274;43.060;25.618;2023-12-22T01:43:41;-1.40;99.90
68354;DHT22;55274;43.060;25.618;2023-12-22T01:46:07;-1.40;99.90
68354;DHT22;55274;43.060;25.618;2023-12-22T01:48:34;-1.40;99.90
68354;DHT22;55274;43.060;25.618;2023-12-22T01:51:01;-1.30;99.90
68354;DHT22;55274;43.060;25.618;2023-12-22T01:53:28;-1.30;99.90
68354;DHT22;55274;43.060;25.618;2023-12-22T01:55:55;-1.20;99.90
68354;DHT22;55274;43.060;25.618;2023-12-22T01:58:23;-1.20;99.90
68354;DHT22;55274;43.060;25.618;2023-12-22T02:00:49;-1.20;99.90
68354;DHT22;55274;43.060;25.618;2023-12-22T02:03:16;-1.20;99.90
68354;DHT22;55274;43.060;25.618;2023-12-22T02:05:45;-1.30;99.90
68354;DHT22;55274;43.060;25.618;2023-12-22T02:08:12;-1.30;99.90
68354;DHT22;55274;43.060;25.618;2023-12-22T02:10:38;-1.30;99.90
68354;DHT22;55274;43.060;25.618;2023-12-22T02:13:08;-1.20;99.90
68354;DHT22;55274;43.060;25.618;2023-12-22T02:15:34;-1.20;99.90
68354;DHT22;55274;43.060;25.618;2023-12-22T02:18:17;-1.20;99.90
68354;DHT22;55274;43.060;25.618;2023-12-22T02:20:46;-1.20;99.90
68354;DHT22;55274;43.060;25.618;2023-12-22T02:23:13;-1.20;99.90
68354;DHT22;55274;43.060;25.618;2023-12-22T02:25:38;-1.20;99.90
68354;DHT22;55274;43.060;25.618;2023-12-22T02:28:07;-1.20;99.90
68354;DHT22;55274;43.060;25.618;2023-12-22T02:33:05;-1.20;99.90
68354;DHT22;55274;43.060;25.618;2023-12-22T02:35:36;-1.20;99.90
68354;DHT22;55274;43.060;25.618;2023-12-22T02:38:03;-1.10;99.90
68354;DHT22;55274;43.060;25.618;2023-12-22T02:40:30;-1.10;99.90
68354;DHT22;55274;43.060;25.618;2023-12-22T02:42:56;-1.10;99.90
68354;DHT22;55274;43.060;25.618;2023-12-22T02:45:22;-1.00;99.90
68354;DHT22;55274;43.060;25.618;2023-12-22T02:47:48;-1.00;99.90
68354;DHT22;55274;43.060;25.618;2023-12-22T02:50:15;-1.00;99.90
68354;DHT22;55274;43.060;25.618;2023-12-22T02:52:41;-1.00;99.90
68354;DHT22;55274;43.060;25.618;2023-12-22T02:55:08;-1.00;99.90
68354;DHT22;55274;43.060;25.618;2023-12-22T02:57:34;-0.90;99.90
68354;DHT22;55274;43.060;25.618;2023-12-22T03:00:00;-0.90;99.90
68354;DHT22;55274;43.060;25.618;2023-12-22T03:02:26;-0.90;99.90
68354;DHT22;55274;43.060;25.618;2023-12-22T03:04:51;-0.80;99.90
68354;DHT22;55274;43.060;25.618;2023-12-22T03:07:17;-0.80;99.90
68354;DHT22;55274;43.060;25.618;2023-12-22T03:09:43;-0.80;99.90
68354;DHT22;55274;43.060;25.618;2023-12-22T03:12:10;-0.80;99.90
68354;DHT22;55274;43.060;25.618;2023-12-22T03:14:36;-0.80;99.90
68354;DHT22;55274;43.060;25.618;2023-12-22T03:17:03;-0.80;99.90
68354;DHT22;55274;43.060;25.618;2023-12-22T03:19:30;-0.70;99.90
68354;DHT22;55274;43.060;25.618;2023-12-22T03:21:56;-0.70;99.90
68354;DHT22;55274;43.060;25.618;2023-12-22T03:24:25;-0.70;99.90
68354;DHT22;55274;43.060;25.618;2023-12-22T03:26:52;-0.60;99.90
68354;DHT22;55274;43.060;25.618;2023-12-22T03:29:18;-0.60;99.90
68354;DHT22;55274;43.060;25.618;2023-12-22T03:31:44;-0.60;99.90
68354;DHT22;55274;43.060;25.618;2023-12-22T03:34:10;-0.60;99.90
68354;DHT22;55274;43.060;25.618;2023-12-22T03:36:36;-0.60;99.90
68354;DHT22;55274;43.060;25.618;2023-12-22T03:39:02;-0.60;99.90
68354;DHT22;55274;43.060;25.618;2023-12-22T03:41:28;-0.50;99.90
68354;DHT22;55274;43.060;25.618;2023-12-22T03:43:55;-0.50;99.90
68354;DHT22;55274;43.060;25.618;2023-12-22T03:46:21;-0.50;99.90
68354;DHT22;55274;43.060;25.618;2023-12-22T03:48:47;-0.50;99.90
68354;DHT22;55274;43.060;25.618;2023-12-22T03:51:13;-0.40;99.90
68354;DHT22;55274;43.060;25.618;2023-12-22T03:53:40;-0.50;99.90
68354;DHT22;55274;43.060;25.618;2023-12-22T03:56:08;-0.40;99.90
68354;DHT22;55274;43.060;25.618;2023-12-22T03:58:35;-0.40;99.90
68354;DHT22;55274;43.060;25.618;2023-12-22T04:01:01;-0.40;99.90
68354;DHT22;55274;43.060;25.618;2023-12-22T04:03:26;-0.40;99.90
68354;DHT22;55274;43.060;25.618;2023-12-22T04:05:52;-0.40;99.90
68354;DHT22;55274;43.060;25.618;2023-12-22T04:08:18;-0.40;99.90
68354;DHT22;55274;43.060;25.618;2023-12-22T04:10:46;-0.40;99.90
68354;DHT22;55274;43.060;25.618;2023-12-22T04:13:12;-0.40;99.90
68354;DHT22;55274;43.060;25.618;2023-12-22T04:15:38;-0.40;99.90
68354;DHT22;55274;43.060;25.618;2023-12-22T04:18:04;-0.40;99.90
68354;DHT22;55274;43.060;25.618;2023-12-22T04:20:29;-0.40;99.90
68354;DHT22;55274;43.060;25.618;2023-12-22T04:22:55;-0.30;99.90
68354;DHT22;55274;43.060;25.618;2023-12-22T04:25:21;-0.30;99.90
68354;DHT22;55274;43.060;25.618;2023-12-22T04:27:48;-0.30;99.90
68354;DHT22;55274;43.060;25.618;2023-12-22T04:30:15;-0.30;99.90
68354;DHT22;55274;43.060;25.618;2023-12-22T04:32:41;-0.30;99.90
68354;DHT22;55274;43.060;25.618;2023-12-22T04:35:07;-0.30;99.90
68354;DHT22;55274;43.060;25.618;2023-12-22T04:37:32;-0.30;99.90
68354;DHT22;55274;43.060;25.618;2023-12-22T04:39:58;-0.30;99.90
68354;DHT22;55274;43.060;25.618;2023-12-22T04:42:24;-0.30;99.90
68354;DHT22;55274;43.060;25.618;2023-12-22T04:44:54;-0.20;99.90
68354;DHT22;55274;43.060;25.618;2023-12-22T04:47:20;-0.20;99.90
68354;DHT22;55274;43.060;25.618;2023-12-22T04:49:46;-0.20;99.90
68354;DHT22;55274;43.060;25.618;2023-12-22T04:52:12;-0.20;99.90
68354;DHT22;55274;43.060;25.618;2023-12-22T04:54:38;-0.20;99.90
68354;DHT22;55274;43.060;25.618;2023-12-22T04:57:04;-0.10;99.90
68354;DHT22;55274;43.060;25.618;2023-12-22T04:59:30;-0.10;99.90
68354;DHT22;55274;43.060;25.618;2023-12-22T05:01:56;-0.10;99.90
68354;DHT22;55274;43.060;25.618;2023-12-22T05:04:22;-0.10;99.90
68354;DHT22;55274;43.060;25.618;2023-12-22T05:06:48;-0.10;99.90
68354;DHT22;55274;43.060;25.618;2023-12-22T05:09:15;-0.10;99.90
68354;DHT22;55274;43.060;25.618;2023-12-22T05:11:41;-0.10;99.90
68354;DHT22;55274;43.060;25.618;2023-12-22T05:14:06;-0.10;99.90
68354;DHT22;55274;43.060;25.618;2023-12-22T05:16:32;0.00;99.90
68354;DHT22;55274;43.060;25.618;2023-12-22T05:18:58;0.00;99.90
68354;DHT22;55274;43.060;25.618;2023-12-22T05:21:24;0.00;99.90
68354;DHT22;55274;43.060;25.618;2023-12-22T05:23:50;0.10;99.90
68354;DHT22;55274;43.060;25.618;2023-12-22T05:26:23;0.10;99.90
68354;DHT22;55274;43.060;25.618;2023-12-22T05:28:49;0.10;99.90
68354;DHT22;55274;43.060;25.618;2023-12-22T05:31:16;0.10;99.90
68354;DHT22;55274;43.060;25.618;2023-12-22T05:33:43;0.10;99.90
68354;DHT22;55274;43.060;25.618;2023-12-22T05:36:09;0.10;99.90
68354;DHT22;55274;43.060;25.618;2023-12-22T05:38:40;0.20;99.90
68354;DHT22;55274;43.060;25.618;2023-12-22T05:41:06;0.20;99.90
68354;DHT22;55274;43.060;25.618;2023-12-22T05:43:32;0.20;99.90
68354;DHT22;55274;43.060;25.618;2023-12-22T05:45:59;0.20;99.90
68354;DHT22;55274;43.060;25.618;2023-12-22T05:48:26;0.20;99.90
68354;DHT22;55274;43.060;25.618;2023-12-22T05:50:51;0.20;99.90
68354;DHT22;55274;43.060;25.618;2023-12-22T05:53:17;0.30;99.90
68354;DHT22;55274;43.060;25.618;2023-12-22T05:55:43;0.30;99.90
68354;DHT22;55274;43.060;25.618;2023-12-22T05:58:08;0.30;99.90
68354;DHT22;55274;43.060;25.618;2023-12-22T06:00:34;0.30;99.90
68354;DHT22;55274;43.060;25.618;2023-12-22T06:03:01;0.40;99.90
68354;DHT22;55274;43.060;25.618;2023-12-22T06:05:27;0.40;99.90
68354;DHT22;55274;43.060;25.618;2023-12-22T06:07:56;0.40;99.90
68354;DHT22;55274;43.060;25.618;2023-12-22T06:10:21;0.50;99.90
68354;DHT22;55274;43.060;25.618;2023-12-22T06:12:47;0.50;99.90
68354;DHT22;55274;43.060;25.618;2023-12-22T06:15:13;0.50;99.90
68354;DHT22;55274;43.060;25.618;2023-12-22T06:17:39;0.50;99.90
68354;DHT22;55274;43.060;25.618;2023-12-22T06:20:05;0.60;99.90
68354;DHT22;55274;43.060;25.618;2023-12-22T06:22:31;0.60;99.90
68354;DHT22;55274;43.060;25.618;2023-12-22T06:24:58;0.60;99.90
68354;DHT22;55274;43.060;25.618;2023-12-22T06:27:23;0.60;99.90
68354;DHT22;55274;43.060;25.618;2023-12-22T06:29:50;0.60;99.90
68354;DHT22;55274;43.060;25.618;2023-12-22T06:32:16;0.70;99.90
68354;DHT22;55274;43.060;25.618;2023-12-22T06:34:42;0.70;99.90
68354;DHT22;55274;43.060;25.618;2023-12-22T06:37:08;0.80;99.90
68354;DHT22;55274;43.060;25.618;2023-12-22T06:39:36;0.80;99.90
68354;DHT22;55274;43.060;25.618;2023-12-22T06:42:02;0.80;99.90
68354;DHT22;55274;43.060;25.618;2023-12-22T06:44:29;0.90;99.90
68354;DHT22;55274;43.060;25.618;2023-12-22T06:46:57;0.90;99.90
68354;DHT22;55274;43.060;25.618;2023-12-22T06:49:22;0.90;99.90
68354;DHT22;55274;43.060;25.618;2023-12-22T06:51:48;1.00;99.90
68354;DHT22;55274;43.060;25.618;2023-12-22T06:54:14;1.10;99.90
68354;DHT22;55274;43.060;25.618;2023-12-22T06:56:40;1.10;99.90
68354;DHT22;55274;43.060;25.618;2023-12-22T06:59:06;1.10;99.90
68354;DHT22;55274;43.060;25.618;2023-12-22T07:01:33;1.20;99.90
68354;DHT22;55274;43.060;25.618;2023-12-22T07:04:00;1.20;99.90
68354;DHT22;55274;43.060;25.618;2023-12-22T07:06:31;1.20;99.90
68354;DHT22;55274;43.060;25.618;2023-12-22T07:09:27;1.20;99.90
68354;DHT22;55274;43.060;25.618;2023-12-22T07:11:50;1.30;99.90
68354;DHT22;55274;43.060;25.618;2023-12-22T07:14:17;1.30;99.90
68354;DHT22;55274;43.060;25.618;2023-12-22T07:16:43;1.40;99.90
68354;DHT22;55274;43.060;25.618;2023-12-22T07:19:09;1.50;99.90
68354;DHT22;55274;43.060;25.618;2023-12-22T07:21:36;1.50;99.90
68354;DHT22;55274;43.060;25.618;2023-12-22T07:24:02;1.50;99.90
68354;DHT22;55274;43.060;25.618;2023-12-22T07:26:28;1.60;99.90
68354;DHT22;55274;43.060;25.618;2023-12-22T07:28:54;1.70;99.90
68354;DHT22;55274;43.060;25.618;2023-12-22T07:31:20;1.70;99.90
68354;DHT22;55274;43.060;25.618;2023-12-22T07:33:46;1.80;99.90
68354;DHT22;55274;43.060;25.618;2023-12-22T07:36:12;1.80;99.90
68354;DHT22;55274;43.060;25.618;2023-12-22T07:38:38;1.80;99.90
68354;DHT22;55274;43.060;25.618;2023-12-22T07:41:07;1.80;99.90
68354;DHT22;55274;43.060;25.618;2023-12-22T07:43:33;1.80;99.90
68354;DHT22;55274;43.060;25.618;2023-12-22T07:45:58;1.90;99.90
68354;DHT22;55274;43.060;25.618;2023-12-22T07:48:24;1.90;99.90
68354;DHT22;55274;43.060;25.618;2023-12-22T07:50:50;1.90;99.90
68354;DHT22;55274;43.060;25.618;2023-12-22T07:53:16;2.00;99.90
68354;DHT22;55274;43.060;25.618;2023-12-22T07:55:43;2.00;99.90
68354;DHT22;55274;43.060;25.618;2023-12-22T07:58:09;2.10;99.90
68354;DHT22;55274;43.060;25.618;2023-12-22T08:00:35;2.10;99.90
68354;DHT22;55274;43.060;25.618;2023-12-22T08:03:02;2.10;99.90
68354;DHT22;55274;43.060;25.618;2023-12-22T08:05:28;2.10;99.90
68354;DHT22;55274;43.060;25.618;2023-12-22T08:07:53;2.20;99.90
68354;DHT22;55274;43.060;25.618;2023-12-22T08:10:19;2.20;99.90
68354;DHT22;55274;43.060;25.618;2023-12-22T08:12:45;2.20;99.90
68354;DHT22;55274;43.060;25.618;2023-12-22T08:15:10;2.20;99.90
68354;DHT22;55274;43.060;25.618;2023-12-22T08:17:36;2.30;99.90
68354;DHT22;55274;43.060;25.618;2023-12-22T08:20:06;2.30;99.90
68354;DHT22;55274;43.060;25.618;2023-12-22T08:22:34;2.30;99.90
68354;DHT22;55274;43.060;25.618;2023-12-22T08:24:59;2.30;99.90
68354;DHT22;55274;43.060;25.618;2023-12-22T08:27:25;2.30;99.90
68354;DHT22;55274;43.060;25.618;2023-12-22T08:29:51;2.30;99.90
68354;DHT22;55274;43.060;25.618;2023-12-22T08:32:16;2.30;99.90
68354;DHT22;55274;43.060;25.618;2023-12-22T08:34:42;2.30;99.90
68354;DHT22;55274;43.060;25.618;2023-12-22T08:37:08;2.30;99.90
68354;DHT22;55274;43.060;25.618;2023-12-22T08:39:34;2.30;99.90
68354;DHT22;55274;43.060;25.618;2023-12-22T08:41:59;2.40;99.90
68354;DHT22;55274;43.060;25.618;2023-12-22T08:44:25;2.40;99.90
68354;DHT22;55274;43.060;25.618;2023-12-22T08:46:51;2.40;99.90
68354;DHT22;55274;43.060;25.618;2023-12-22T08:49:16;2.40;99.90
68354;DHT22;55274;43.060;25.618;2023-12-22T08:51:42;2.50;99.90
68354;DHT22;55274;43.060;25.618;2023-12-22T08:54:08;2.50;99.90
68354;DHT22;55274;43.060;25.618;2023-12-22T08:56:34;2.50;99.90
68354;DHT22;55274;43.060;25.618;2023-12-22T08:59:00;2.50;99.90
68354;DHT22;55274;43.060;25.618;2023-12-22T09:01:26;2.50;99.90
68354;DHT22;55274;43.060;25.618;2023-12-22T09:03:52;2.60;99.90
68354;DHT22;55274;43.060;25.618;2023-12-22T09:06:22;2.60;99.90
68354;DHT22;55274;43.060;25.618;2023-12-22T09:08:48;2.70;99.90
68354;DHT22;55274;43.060;25.618;2023-12-22T09:11:16;2.70;99.90
68354;DHT22;55274;43.060;25.618;2023-12-22T09:13:43;2.80;99.90
68354;DHT22;55274;43.060;25.618;2023-12-22T09:16:09;2.80;99.90
68354;DHT22;55274;43.060;25.618;2023-12-22T09:18:36;2.80;99.90
68354;DHT22;55274;43.060;25.618;2023-12-22T09:21:02;2.90;99.90
68354;DHT22;55274;43.060;25.618;2023-12-22T09:23:28;3.00;99.90
68354;DHT22;55274;43.060;25.618;2023-12-22T09:25:54;3.10;99.90
68354;DHT22;55274;43.060;25.618;2023-12-22T09:28:20;3.20;99.90
68354;DHT22;55274;43.060;25.618;2023-12-22T09:30:46;3.20;99.90
68354;DHT22;55274;43.060;25.618;2023-12-22T09:33:12;3.30;99.90
68354;DHT22;55274;43.060;25.618;2023-12-22T09:35:38;3.40;99.90
68354;DHT22;55274;43.060;25.618;2023-12-22T09:38:10;3.50;99.90
68354;DHT22;55274;43.060;25.618;2023-12-22T09:40:36;3.50;99.90
68354;DHT22;55274;43.060;25.618;2023-12-22T09:43:02;3.60;99.90
68354;DHT22;55274;43.060;25.618;2023-12-22T09:45:30;3.70;99.90
68354;DHT22;55274;43.060;25.618;2023-12-22T09:48:02;3.70;99.90
68354;DHT22;55274;43.060;25.618;2023-12-22T09:50:30;3.70;99.90
68354;DHT22;55274;43.060;25.618;2023-12-22T09:52:56;3.80;99.90
68354;DHT22;55274;43.060;25.618;2023-12-22T09:55:23;3.80;99.90
68354;DHT22;55274;43.060;25.618;2023-12-22T09:57:50;3.80;99.90
68354;DHT22;55274;43.060;25.618;2023-12-22T10:00:17;4.00;99.90
68354;DHT22;55274;43.060;25.618;2023-12-22T10:02:44;4.00;99.90
68354;DHT22;55274;43.060;25.618;2023-12-22T10:05:13;4.00;99.90
68354;DHT22;55274;43.060;25.618;2023-12-22T10:07:40;4.10;99.90
68354;DHT22;55274;43.060;25.618;2023-12-22T10:10:07;4.10;99.90
68354;DHT22;55274;43.060;25.618;2023-12-22T10:12:34;4.20;99.90
68354;DHT22;55274;43.060;25.618;2023-12-22T10:15:00;4.20;99.90
68354;DHT22;55274;43.060;25.618;2023-12-22T10:17:26;4.30;99.90
68354;DHT22;55274;43.060;25.618;2023-12-22T10:19:52;4.40;99.90
68354;DHT22;55274;43.060;25.618;2023-12-22T10:22:18;4.40;99.90
68354;DHT22;55274;43.060;25.618;2023-12-22T10:24:45;4.50;99.90
68354;DHT22;55274;43.060;25.618;2023-12-22T10:27:17;4.50;99.90
68354;DHT22;55274;43.060;25.618;2023-12-22T10:29:48;4.50;99.90
68354;DHT22;55274;43.060;25.618;2023-12-22T10:32:15;4.50;99.90
68354;DHT22;55274;43.060;25.618;2023-12-22T10:34:41;4.50;99.90
68354;DHT22;55274;43.060;25.618;2023-12-22T10:37:07;4.60;99.90
68354;DHT22;55274;43.060;25.618;2023-12-22T10:39:33;4.60;99.90
68354;DHT22;55274;43.060;25.618;2023-12-22T10:42:01;4.70;99.90
68354;DHT22;55274;43.060;25.618;2023-12-22T10:44:28;4.90;99.90
68354;DHT22;55274;43.060;25.618;2023-12-22T10:46:55;5.00;99.90
68354;DHT22;55274;43.060;25.618;2023-12-22T10:49:21;5.10;99.90
68354;DHT22;55274;43.060;25.618;2023-12-22T10:51:47;5.30;99.90
68354;DHT22;55274;43.060;25.618;2023-12-22T10:54:13;5.70;99.90
68354;DHT22;55274;43.060;25.618;2023-12-22T10:56:40;6.10;99.90
68354;DHT22;55274;43.060;25.618;2023-12-22T10:59:06;6.50;99.90
68354;DHT22;55274;43.060;25.618;2023-12-22T11:01:32;6.90;99.90
68354;DHT22;55274;43.060;25.618;2023-12-22T11:04:05;7.50;99.90
68354;DHT22;55274;43.060;25.618;2023-12-22T11:06:37;8.10;99.90
68354;DHT22;55274;43.060;25.618;2023-12-22T11:09:10;8.50;99.90
68354;DHT22;55274;43.060;25.618;2023-12-22T11:11:39;8.80;99.90
68354;DHT22;55274;43.060;25.618;2023-12-22T11:14:06;9.20;99.90
68354;DHT22;55274;43.060;25.618;2023-12-22T11:16:34;9.50;99.90
68354;DHT22;55274;43.060;25.618;2023-12-22T11:19:01;9.90;99.90
68354;DHT22;55274;43.060;25.618;2023-12-22T11:21:27;10.10;99.90
68354;DHT22;55274;43.060;25.618;2023-12-22T11:23:54;10.40;99.90
68354;DHT22;55274;43.060;25.618;2023-12-22T11:26:22;10.50;99.90
68354;DHT22;55274;43.060;25.618;2023-12-22T11:28:49;10.80;99.90
68354;DHT22;55274;43.060;25.618;2023-12-22T11:31:17;10.90;99.90
68354;DHT22;55274;43.060;25.618;2023-12-22T11:33:47;11.10;99.10
68354;DHT22;55274;43.060;25.618;2023-12-22T11:36:14;11.00;98.50
68354;DHT22;55274;43.060;25.618;2023-12-22T11:38:47;11.00;97.70
68354;DHT22;55274;43.060;25.618;2023-12-22T11:41:17;10.90;97.80
68354;DHT22;55274;43.060;25.618;2023-12-22T11:43:44;11.00;97.30
68354;DHT22;55274;43.060;25.618;2023-12-22T11:46:10;11.00;97.30
68354;DHT22;55274;43.060;25.618;2023-12-22T11:48:37;11.00;96.80
68354;DHT22;55274;43.060;25.618;2023-12-22T11:51:16;11.00;96.50
68354;DHT22;55274;43.060;25.618;2023-12-22T11:53:42;10.90;96.80
68354;DHT22;55274;43.060;25.618;2023-12-22T11:56:09;10.90;97.00
68354;DHT22;55274;43.060;25.618;2023-12-22T11:58:48;10.90;96.40
68354;DHT22;55274;43.060;25.618;2023-12-22T12:01:23;10.80;96.80
68354;DHT22;55274;43.060;25.618;2023-12-22T12:04:01;10.80;97.40
68354;DHT22;55274;43.060;25.618;2023-12-22T12:08:59;10.80;97.00
68354;DHT22;55274;43.060;25.618;2023-12-22T12:14:22;10.80;95.70
68354;DHT22;55274;43.060;25.618;2023-12-22T12:16:49;10.80;96.10
68354;DHT22;55274;43.060;25.618;2023-12-22T12:19:14;10.80;96.40
68354;DHT22;55274;43.060;25.618;2023-12-22T12:21:40;10.80;94.50
68354;DHT22;55274;43.060;25.618;2023-12-22T12:24:07;10.80;95.00
68354;DHT22;55274;43.060;25.618;2023-12-22T12:26:34;10.80;94.60
68354;DHT22;55274;43.060;25.618;2023-12-22T12:29:01;10.80;93.60
68354;DHT22;55274;43.060;25.618;2023-12-22T12:31:37;10.80;93.00
68354;DHT22;55274;43.060;25.618;2023-12-22T12:34:05;10.70;92.90
68354;DHT22;55274;43.060;25.618;2023-12-22T12:36:31;10.70;91.50
68354;DHT22;55274;43.060;25.618;2023-12-22T12:39:07;10.70;90.30
68354;DHT22;55274;43.060;25.618;2023-12-22T12:41:36;10.70;88.50
68354;DHT22;55274;43.060;25.618;2023-12-22T12:44:06;10.80;87.00
68354;DHT22;55274;43.060;25.618;2023-12-22T12:46:39;10.80;86.30
68354;DHT22;55274;43.060;25.618;2023-12-22T12:49:06;10.70;86.50
68354;DHT22;55274;43.060;25.618;2023-12-22T12:51:37;10.60;85.80
68354;DHT22;55274;43.060;25.618;2023-12-22T12:54:04;10.60;85.30
68354;DHT22;55274;43.060;25.618;2023-12-22T12:56:45;10.60;82.70
68354;DHT22;55274;43.060;25.618;2023-12-22T12:59:16;10.70;81.80
68354;DHT22;55274;43.060;25.618;2023-12-22T13:01:45;10.80;81.80
68354;DHT22;55274;43.060;25.618;2023-12-22T13:04:11;10.90;82.60
68354;DHT22;55274;43.060;25.618;2023-12-22T13:06:45;10.90;83.40
68354;DHT22;55274;43.060;25.618;2023-12-22T13:09:15;11.00;82.40
68354;DHT22;55274;43.060;25.618;2023-12-22T13:11:42;11.00;82.40
68354;DHT22;55274;43.060;25.618;2023-12-22T13:14:12;11.00;81.20
68354;DHT22;55274;43.060;25.618;2023-12-22T13:16:47;11.00;80.20
68354;DHT22;55274;43.060;25.618;2023-12-22T13:19:13;11.00;79.50
68354;DHT22;55274;43.060;25.618;2023-12-22T13:21:39;10.90;78.90
68354;DHT22;55274;43.060;25.618;2023-12-22T13:24:13;10.90;77.20
68354;DHT22;55274;43.060;25.618;2023-12-22T13:26:40;10.80;77.70
68354;DHT22;55274;43.060;25.618;2023-12-22T13:29:07;10.70;78.00
68354;DHT22;55274;43.060;25.618;2023-12-22T13:31:33;10.70;78.20
68354;DHT22;55274;43.060;25.618;2023-12-22T13:34:02;10.60;78.10
68354;DHT22;55274;43.060;25.618;2023-12-22T13:36:33;10.60;78.60
68354;DHT22;55274;43.060;25.618;2023-12-22T13:39:14;10.50;78.90
68354;DHT22;55274;43.060;25.618;2023-12-22T13:41:41;10.50;78.40
68354;DHT22;55274;43.060;25.618;2023-12-22T13:44:11;10.40;78.20
68354;DHT22;55274;43.060;25.618;2023-12-22T13:46:37;10.30;79.50
68354;DHT22;55274;43.060;25.618;2023-12-22T13:49:08;10.30;79.90
68354;DHT22;55274;43.060;25.618;2023-12-22T13:51:42;10.20;80.00
68354;DHT22;55274;43.060;25.618;2023-12-22T13:54:08;10.10;80.60
68354;DHT22;55274;43.060;25.618;2023-12-22T13:56:35;10.10;80.90
68354;DHT22;55274;43.060;25.618;2023-12-22T13:59:02;10.10;81.10
68354;DHT22;55274;43.060;25.618;2023-12-22T14:01:28;10.00;81.20
68354;DHT22;55274;43.060;25.618;2023-12-22T14:03:54;10.00;81.30
68354;DHT22;55274;43.060;25.618;2023-12-22T14:06:20;9.90;81.50
68354;DHT22;55274;43.060;25.618;2023-12-22T14:08:46;9.90;81.90
68354;DHT22;55274;43.060;25.618;2023-12-22T14:11:12;9.90;82.70
68354;DHT22;55274;43.060;25.618;2023-12-22T14:13:38;9.80;82.40
68354;DHT22;55274;43.060;25.618;2023-12-22T14:16:08;9.70;82.70
68354;DHT22;55274;43.060;25.618;2023-12-22T14:18:34;9.70;82.70
68354;DHT22;55274;43.060;25.618;2023-12-22T14:21:01;9.60;82.50
68354;DHT22;55274;43.060;25.618;2023-12-22T14:23:26;9.60;83.00
68354;DHT22;55274;43.060;25.618;2023-12-22T14:25:52;9.50;82.90
68354;DHT22;55274;43.060;25.618;2023-12-22T14:28:18;9.50;83.80
68354;DHT22;55274;43.060;25.618;2023-12-22T14:30:45;9.40;84.20
68354;DHT22;55274;43.060;25.618;2023-12-22T14:33:10;9.40;84.40
68354;DHT22;55274;43.060;25.618;2023-12-22T14:35:36;9.20;84.50
68354;DHT22;55274;43.060;25.618;2023-12-22T14:38:02;9.30;84.80
68354;DHT22;55274;43.060;25.618;2023-12-22T14:40:28;9.20;85.10
68354;DHT22;55274;43.060;25.618;2023-12-22T14:42:54;9.10;85.40
68354;DHT22;55274;43.060;25.618;2023-12-22T14:45:20;9.10;86.10
68354;DHT22;55274;43.060;25.618;2023-12-22T14:47:45;9.00;86.50
68354;DHT22;55274;43.060;25.618;2023-12-22T14:50:11;8.90;87.40
68354;DHT22;55274;43.060;25.618;2023-12-22T14:52:37;8.90;87.60
68354;DHT22;55274;43.060;25.618;2023-12-22T14:55:03;8.80;88.10
68354;DHT22;55274;43.060;25.618;2023-12-22T14:57:32;8.70;89.20
68354;DHT22;55274;43.060;25.618;2023-12-22T14:59:59;8.70;89.50
68354;DHT22;55274;43.060;25.618;2023-12-22T15:02:25;8.60;90.10
68354;DHT22;55274;43.060;25.618;2023-12-22T15:04:51;8.50;90.90
68354;DHT22;55274;43.060;25.618;2023-12-22T15:07:17;8.50;91.00
68354;DHT22;55274;43.060;25.618;2023-12-22T15:09:44;8.50;91.20
68354;DHT22;55274;43.060;25.618;2023-12-22T15:12:13;8.50;91.20
68354;DHT22;55274;43.060;25.618;2023-12-22T15:14:44;8.40;91.30
68354;DHT22;55274;43.060;25.618;2023-12-22T15:17:10;8.50;91.40
68354;DHT22;55274;43.060;25.618;2023-12-22T15:19:40;8.50;91.40
68354;DHT22;55274;43.060;25.618;2023-12-22T15:22:08;8.40;91.40
68354;DHT22;55274;43.060;25.618;2023-12-22T15:24:35;8.40;91.80
68354;DHT22;55274;43.060;25.618;2023-12-22T15:27:02;8.40;91.90
68354;DHT22;55274;43.060;25.618;2023-12-22T15:29:27;8.40;92.10